Time;durP1;ratioP1;P1;durP2;ratioP2;P2;SDS_P1;SDS_P2;PMS_P1;PMS_P2;Temp;Humidity;BMP_temperature;BMP_pressure;BME280_temperature;BME280_humidity;BME280_pressure;Samples;Min_cycle;Max_cycle;Signal;HPM_P1;HPM_P2
2023/08/04 00:00:41;;;;;;;3.80;1.70;;;;;;;18.97;72.46;99779.79;105779;1261;101396;-84
2023/08/04 00:03:31;;;;;;;4.30;1.50;;;;;;;18.94;72.72;99777.00;105790;1260;100295;-83
2023/08/04 00:06:16;;;;;;;6.60;1.50;;;;;;;18.91;72.95;99779.25;105778;1260;99084;-82
2023/08/04 00:09:01;;;;;;;5.20;1.50;;;;;;;18.89;73.14;99781.52;105876;1259;97986;-84
2023/08/04 00:11:48;;;;;;;4.10;1.40;;;;;;;18.86;72.95;99781.84;105689;1264;98480;-85
2023/08/04 00:14:33;;;;;;;5.00;1.50;;;;;;;18.82;73.23;99784.18;105878;1261;101406;-82
2023/08/04 00:17:18;;;;;;;5.10;1.80;;;;;;;18.80;73.50;99791.45;105764;1264;100831;-85
2023/08/04 00:20:08;;;;;;;3.60;1.40;;;;;;;18.79;73.60;99802.45;105763;1260;98086;-84
2023/08/04 00:22:54;;;;;;;2.90;1.70;;;;;;;18.77;73.81;99804.27;105970;1263;97968;-83
2023/08/04 00:25:39;;;;;;;4.20;1.80;;;;;;;18.75;74.01;99805.63;105716;1259;98396;-83
2023/08/04 00:28:25;;;;;;;5.00;1.70;;;;;;;18.72;74.11;99802.89;105815;1261;102669;-84
2023/08/04 00:31:12;;;;;;;8.40;2.00;;;;;;;18.68;74.29;99798.84;105810;1260;101093;-83
2023/08/04 00:33:58;;;;;;;3.80;1.70;;;;;;;18.65;74.48;99798.86;105699;1259;99632;-83
2023/08/04 00:36:47;;;;;;;5.80;1.60;;;;;;;18.63;74.43;99798.89;105623;1263;98077;-83
2023/08/04 00:39:33;;;;;;;2.80;1.40;;;;;;;18.60;74.70;99803.33;105594;1264;98511;-82
2023/08/04 00:42:18;;;;;;;5.20;1.80;;;;;;;18.56;74.92;99811.20;105740;1260;101442;-82
2023/08/04 00:45:05;;;;;;;6.30;2.20;;;;;;;18.52;75.14;99810.41;105509;1267;100504;-84
2023/08/04 00:47:52;;;;;;;3.40;1.60;;;;;;;18.49;75.25;99814.79;105710;1266;99136;-83
2023/08/04 00:50:37;;;;;;;5.00;1.60;;;;;;;18.46;75.20;99813.83;105872;1260;97884;-83
2023/08/04 00:53:23;;;;;;;8.60;1.90;;;;;;;18.44;75.45;99818.08;105738;1259;98506;-82
2023/08/04 00:56:08;;;;;;;3.90;1.60;;;;;;;18.43;75.79;99819.84;105970;1266;101415;-82
2023/08/04 00:58:54;;;;;;;5.60;1.90;;;;;;;18.43;75.92;99817.58;105746;1260;99144;-84
2023/08/04 01:01:40;;;;;;;2.60;1.30;;;;;;;18.39;75.95;99824.41;105783;1259;99121;-83
2023/08/04 01:04:25;;;;;;;4.10;1.50;;;;;;;18.35;76.21;99821.08;105793;1265;97967;-83
2023/08/04 01:07:20;;;;;;;4.20;1.40;;;;;;;18.32;76.42;99821.73;105976;1259;99276;-82
2023/08/04 01:10:09;;;;;;;4.00;1.80;;;;;;;18.31;76.79;99819.65;105860;1260;101338;-84
2023/08/04 01:13:14;;;;;;;5.50;2.10;;;;;;;18.29;76.57;99820.95;105819;1266;100446;-83
2023/08/04 01:16:06;;;;;;;5.70;1.80;;;;;;;18.27;76.91;99824.88;105665;1267;98048;-82
2023/08/04 01:18:51;;;;;;;4.40;1.90;;;;;;;18.25;76.86;99821.49;105746;1259;97963;-84
2023/08/04 01:21:42;;;;;;;3.80;2.10;;;;;;;18.21;77.16;99819.02;105736;1267;97994;-83
2023/08/04 01:24:27;;;;;;;9.20;2.10;;;;;;;18.19;77.36;99818.69;105990;1260;101330;-82
2023/08/04 01:27:17;;;;;;;4.40;1.60;;;;;;;18.16;77.49;99825.65;105928;1259;100851;-82
2023/08/04 01:30:05;;;;;;;4.10;1.90;;;;;;;18.14;77.66;99827.73;105673;1264;98567;-84
2023/08/04 01:32:51;;;;;;;4.90;2.10;;;;;;;18.12;77.74;99830.80;105928;1259;98080;-82
2023/08/04 01:35:36;;;;;;;5.00;1.90;;;;;;;18.09;78.02;99834.23;105757;1259;98033;-83
2023/08/04 01:38:22;;;;;;;3.50;2.50;;;;;;;18.08;78.14;99832.20;105788;1261;101480;-84
2023/08/04 01:41:07;;;;;;;5.10;1.90;;;;;;;18.06;78.18;99829.20;105797;1260;100365;-84
2023/08/04 01:43:53;;;;;;;5.20;1.90;;;;;;;18.06;78.57;99827.42;105891;1259;97973;-84
2023/08/04 01:46:38;;;;;;;4.30;1.30;;;;;;;18.07;78.43;99832.84;105986;1259;97990;-83
2023/08/04 01:49:24;;;;;;;6.90;2.20;;;;;;;18.09;78.54;99835.09;105766;1260;98431;-84
2023/08/04 01:52:10;;;;;;;4.40;2.10;;;;;;;18.07;78.56;99831.23;105739;1258;101359;-83
2023/08/04 01:54:56;;;;;;;6.30;1.80;;;;;;;18.07;78.81;99830.58;105849;1260;99323;-82
2023/08/04 01:57:42;;;;;;;9.70;2.10;;;;;;;18.05;78.72;99824.98;105715;1261;99077;-83
2023/08/04 02:00:27;;;;;;;4.70;1.90;;;;;;;18.03;78.69;99827.10;105768;1259;97879;-82
2023/08/04 02:03:13;;;;;;;5.20;1.90;;;;;;;18.03;79.03;99831.06;105806;1267;98513;-83
2023/08/04 02:05:58;;;;;;;3.60;1.60;;;;;;;18.03;78.94;99833.72;105743;1261;101451;-87
2023/08/04 02:08:44;;;;;;;4.20;1.60;;;;;;;18.03;78.83;99841.05;105776;1259;99270;-83
2023/08/04 02:11:31;;;;;;;4.70;1.70;;;;;;;18.02;78.96;99841.67;105805;1264;98403;-83
2023/08/04 02:14:17;;;;;;;4.00;2.10;;;;;;;18.00;79.07;99839.70;105780;1261;98077;-82
2023/08/04 02:17:02;;;;;;;5.50;1.90;;;;;;;17.98;79.08;99844.25;105771;1259;98963;-83
2023/08/04 02:19:48;;;;;;;3.50;1.70;;;;;;;17.96;79.33;99843.68;105832;1261;101447;-84
2023/08/04 02:22:34;;;;;;;4.20;1.50;;;;;;;17.93;79.54;99845.04;105791;1259;99183;-82
2023/08/04 02:25:20;;;;;;;4.90;1.70;;;;;;;17.90;79.45;99854.91;105719;1260;98688;-84
2023/08/04 02:28:07;;;;;;;5.80;1.90;;;;;;;17.88;79.62;99855.92;105910;1260;97968;-83
2023/08/04 02:30:53;;;;;;;6.20;2.10;;;;;;;17.85;79.97;99852.76;105789;1259;99227;-83
2023/08/04 02:33:39;;;;;;;7.00;3.30;;;;;;;17.83;80.14;99850.61;105750;1264;101410;-83
2023/08/04 02:36:24;;;;;;;6.60;2.10;;;;;;;17.84;80.37;99852.89;105836;1266;99360;-82
2023/08/04 02:39:10;;;;;;;7.70;1.50;;;;;;;17.82;80.29;99860.35;105737;1267;99082;-84
2023/08/04 02:41:57;;;;;;;5.70;2.30;;;;;;;17.80;80.41;99870.66;105859;1264;97957;-83
2023/08/04 02:44:43;;;;;;;6.50;2.00;;;;;;;17.79;80.51;99879.16;105821;1259;98489;-81
2023/08/04 02:47:29;;;;;;;3.10;1.80;;;;;;;17.78;80.69;99880.30;105740;1262;102332;-82
2023/08/04 02:50:14;;;;;;;5.70;1.70;;;;;;;17.78;80.76;99872.97;105767;1259;99213;-83
2023/08/04 02:52:59;;;;;;;4.70;1.80;;;;;;;17.80;80.67;99876.46;105662;1270;99103;-83
2023/08/04 02:55:45;;;;;;;5.10;1.40;;;;;;;17.80;80.78;99879.92;105814;1262;98004;-83
2023/08/04 02:58:30;;;;;;;4.30;1.80;;;;;;;17.78;80.97;99888.58;105909;1262;98460;-83
2023/08/04 03:01:16;;;;;;;5.00;1.60;;;;;;;17.76;81.16;99886.70;105779;1260;102643;-82
2023/08/04 03:04:03;;;;;;;5.30;2.00;;;;;;;17.75;81.25;99890.41;106003;1262;100792;-81
2023/08/04 03:06:48;;;;;;;2.60;1.40;;;;;;;17.76;81.06;99890.07;105727;1260;97983;-82
2023/08/04 03:09:34;;;;;;;3.90;2.00;;;;;;;17.77;81.26;99889.54;105642;1260;98014;-82
2023/08/04 03:12:19;;;;;;;5.40;1.60;;;;;;;17.78;81.36;99895.89;105880;1262;98485;-83
2023/08/04 03:15:05;;;;;;;5.00;1.90;;;;;;;17.80;81.18;99897.05;105717;1263;102208;-82
2023/08/04 03:17:51;;;;;;;5.00;1.50;;;;;;;17.79;81.34;99903.45;105962;1260;99863;-82
2023/08/04 03:20:39;;;;;;;6.60;1.90;;;;;;;17.81;81.52;99914.04;105831;1259;99138;-83
2023/08/04 03:23:25;;;;;;;5.60;1.70;;;;;;;17.81;81.51;99923.15;105760;1264;98018;-83
2023/08/04 03:26:10;;;;;;;3.90;1.30;;;;;;;17.81;81.22;99923.90;105757;1260;98447;-83
2023/08/04 03:28:55;;;;;;;6.00;1.70;;;;;;;17.80;81.19;99927.23;105722;1259;102799;-82
2023/08/04 03:31:42;;;;;;;2.20;1.40;;;;;;;17.78;81.46;99928.56;105724;1259;99109;-85
2023/08/04 03:34:28;;;;;;;5.10;2.10;;;;;;;17.76;81.58;99932.87;105648;1264;98420;-83
2023/08/04 03:37:13;;;;;;;4.80;1.70;;;;;;;17.74;81.49;99934.79;105746;1267;98057;-82
2023/08/04 03:39:59;;;;;;;4.60;1.70;;;;;;;17.75;81.52;99933.66;105869;1259;97963;-84
2023/08/04 03:42:44;;;;;;;3.80;1.70;;;;;;;17.74;81.75;99927.96;105856;1259;101576;-83
2023/08/04 03:45:30;;;;;;;7.60;1.70;;;;;;;17.74;81.88;99925.42;105862;1259;99162;-83
2023/08/04 03:48:16;;;;;;;3.30;1.80;;;;;;;17.75;81.73;99930.20;105864;1267;99147;-82
2023/08/04 03:51:02;;;;;;;4.00;2.10;;;;;;;17.77;81.80;99929.45;105790;1259;98153;-82
2023/08/04 03:53:47;;;;;;;3.10;1.70;;;;;;;17.77;81.90;99930.28;105744;1265;98559;-82
2023/08/04 03:56:32;;;;;;;3.60;1.80;;;;;;;17.75;81.99;99931.39;105641;1264;102716;-84
2023/08/04 03:59:18;;;;;;;3.90;1.60;;;;;;;17.72;81.92;99933.02;105777;1261;100366;-85
2023/08/04 04:02:03;;;;;;;4.30;1.80;;;;;;;17.71;82.06;99934.16;105753;1261;97901;-82
2023/08/04 04:04:49;;;;;;;5.70;1.70;;;;;;;17.73;82.49;99938.58;105596;1267;97990;-83
2023/08/04 04:07:34;;;;;;;4.20;1.50;;;;;;;17.76;82.65;99944.14;105784;1264;99644;-82
2023/08/04 04:10:19;;;;;;;4.60;1.80;;;;;;;17.77;82.88;99952.11;105689;1261;101536;-82
2023/08/04 04:13:05;;;;;;;3.00;1.60;;;;;;;17.77;82.98;99951.36;105688;1262;99158;-82
2023/08/04 04:15:50;;;;;;;5.50;1.60;;;;;;;17.79;83.18;99948.84;105771;1262;99110;-81
2023/08/04 04:18:36;;;;;;;7.60;1.90;;;;;;;17.82;83.07;99948.46;105748;1260;98049;-83
2023/08/04 04:21:22;;;;;;;4.20;2.10;;;;;;;17.86;83.27;99952.68;105712;1262;97872;-83
2023/08/04 04:24:07;;;;;;;5.20;1.70;;;;;;;17.89;83.47;99954.29;105816;1260;102740;-82
2023/08/04 04:26:52;;;;;;;5.80;2.20;;;;;;;17.91;83.47;99955.67;105818;1262;99118;-82
2023/08/04 04:29:38;;;;;;;4.40;1.80;;;;;;;17.91;83.15;99957.05;105852;1264;98583;-83
2023/08/04 04:32:24;;;;;;;3.80;1.80;;;;;;;17.93;83.55;99958.46;105923;1265;97947;-82
2023/08/04 04:35:10;;;;;;;6.50;2.00;;;;;;;17.95;83.63;99964.52;105820;1264;98489;-83
2023/08/04 04:37:55;;;;;;;4.10;1.70;;;;;;;17.99;83.68;99968.05;105809;1260;101468;-83
2023/08/04 04:40:41;;;;;;;5.70;2.20;;;;;;;18.02;83.57;99972.03;105601;1260;99266;-83
2023/08/04 04:43:28;;;;;;;6.90;2.00;;;;;;;18.06;83.44;99977.40;105687;1266;98067;-82
2023/08/04 04:46:14;;;;;;;2.60;1.40;;;;;;;18.08;83.40;99977.06;105714;1261;98109;-82
2023/08/04 04:49:00;;;;;;;6.50;1.40;;;;;;;18.11;83.18;99978.67;105690;1265;97777;-83
2023/08/04 04:51:45;;;;;;;5.90;1.90;;;;;;;18.16;83.45;99977.86;105870;1261;103147;-83
2023/08/04 04:54:31;;;;;;;4.70;1.50;;;;;;;18.25;83.47;99979.07;105716;1261;99147;-83
2023/08/04 04:57:16;;;;;;;3.80;1.70;;;;;;;18.36;83.39;99977.97;105735;1261;99372;-83
2023/08/04 05:00:03;;;;;;;6.10;1.50;;;;;;;18.49;83.24;99981.73;105805;1263;97710;-84
2023/08/04 05:02:49;;;;;;;6.50;2.80;;;;;;;18.61;83.41;99989.37;106027;1262;98398;-84
2023/08/04 05:05:38;;;;;;;4.60;1.40;;;;;;;18.72;82.96;99990.30;105761;1260;101881;-83
2023/08/04 05:08:23;;;;;;;2.70;1.20;;;;;;;18.81;82.64;99986.98;105805;1260;99350;-82
2023/08/04 05:11:09;;;;;;;3.20;1.10;;;;;;;18.89;82.18;99989.20;105906;1261;99545;-84
2023/08/04 05:13:54;;;;;;;3.80;1.30;;;;;;;18.97;81.66;99993.83;105727;1267;97940;-83
2023/08/04 05:16:40;;;;;;;4.20;1.50;;;;;;;19.04;81.57;100003.79;105624;1260;99598;-84
2023/08/04 05:19:26;;;;;;;2.50;1.40;;;;;;;19.10;81.25;100011.88;105864;1261;101584;-83
2023/08/04 05:22:12;;;;;;;5.20;1.30;;;;;;;19.13;81.12;100014.89;105993;1261;99749;-83
2023/08/04 05:24:57;;;;;;;4.80;1.60;;;;;;;19.16;80.59;100020.03;105619;1266;99091;-82
2023/08/04 05:27:43;;;;;;;4.00;1.20;;;;;;;19.18;80.41;100013.70;105710;1262;98000;-83
2023/08/04 05:30:28;;;;;;;2.70;1.00;;;;;;;19.23;80.23;100021.90;105618;1264;98482;-84
2023/08/04 05:33:14;;;;;;;5.70;1.40;;;;;;;19.29;80.18;100020.05;105542;1260;102305;-83
2023/08/04 05:36:00;;;;;;;4.50;1.30;;;;;;;19.38;80.42;100014.98;105814;1263;99087;-82
2023/08/04 05:38:45;;;;;;;4.90;1.10;;;;;;;19.47;80.12;100014.91;106189;1260;98016;-83
2023/08/04 05:41:31;;;;;;;4.30;1.30;;;;;;;19.54;79.47;100017.31;105783;1259;97900;-84
2023/08/04 05:44:16;;;;;;;2.60;1.10;;;;;;;19.61;78.81;100019.60;105793;1261;98025;-82
2023/08/04 05:47:02;;;;;;;5.10;1.20;;;;;;;19.71;78.97;100013.76;105797;1259;103647;-85
2023/08/04 05:49:47;;;;;;;3.70;1.60;;;;;;;19.86;78.75;100012.34;105839;1260;99101;-84
2023/08/04 05:52:33;;;;;;;4.70;1.30;;;;;;;19.99;78.59;100008.73;105970;1264;98628;-84
2023/08/04 05:55:22;;;;;;;3.70;1.20;;;;;;;20.10;77.84;100007.28;105937;1259;98115;-86
2023/08/04 05:58:07;;;;;;;2.90;1.00;;;;;;;20.22;77.08;100011.50;105748;1259;99653;-82
2023/08/04 06:00:53;;;;;;;4.40;1.20;;;;;;;20.27;76.91;100012.10;105778;1264;101343;-82
2023/08/04 06:03:38;;;;;;;3.00;0.80;;;;;;;20.31;76.55;100022.45;105750;1259;99285;-81
2023/08/04 06:06:24;;;;;;;2.30;1.10;;;;;;;20.36;75.91;100020.34;105765;1259;97943;-85
2023/08/04 06:09:09;;;;;;;2.50;1.00;;;;;;;20.44;76.42;100020.49;105782;1260;98435;-84
2023/08/04 06:11:55;;;;;;;3.80;1.60;;;;;;;20.50;75.88;100019.65;105527;1259;98528;-82
2023/08/04 06:14:45;;;;;;;5.10;1.20;;;;;;;20.51;75.74;100024.29;105647;1259;102771;-84
2023/08/04 06:17:32;;;;;;;2.50;1.20;;;;;;;20.52;75.56;100021.63;106382;1264;99161;-85
2023/08/04 06:20:17;;;;;;;5.80;1.30;;;;;;;20.56;75.57;100019.84;105600;1259;98326;-84
2023/08/04 06:23:04;;;;;;;3.30;1.10;;;;;;;20.60;75.27;100024.71;105699;1259;98533;-83
2023/08/04 06:25:49;;;;;;;2.50;1.20;;;;;;;20.67;75.09;100025.16;105687;1264;97890;-84
2023/08/04 06:28:35;;;;;;;4.90;1.00;;;;;;;20.72;74.71;100027.09;105637;1265;101482;-83
2023/08/04 06:31:21;;;;;;;1.30;1.00;;;;;;;20.74;74.26;100026.23;105571;1259;99875;-84
2023/08/04 06:34:08;;;;;;;2.70;0.70;;;;;;;20.76;74.19;100024.48;105747;1259;97903;-84
2023/08/04 06:36:53;;;;;;;1.60;0.90;;;;;;;20.79;73.75;100019.65;105763;1262;97862;-82
2023/08/04 06:39:39;;;;;;;2.90;1.00;;;;;;;20.85;73.63;100027.95;105942;1261;97980;-83
2023/08/04 06:42:24;;;;;;;2.00;0.80;;;;;;;20.92;73.65;100030.64;105756;1259;101451;-83
2023/08/04 06:45:10;;;;;;;3.20;0.90;;;;;;;20.99;73.74;100033.54;105695;1264;99189;-84
2023/08/04 06:47:55;;;;;;;2.70;0.80;;;;;;;21.06;73.51;100027.11;105825;1264;99073;-83
2023/08/04 06:50:41;;;;;;;2.90;1.10;;;;;;;21.17;73.72;100027.08;105611;1260;97902;-84
2023/08/04 06:53:27;;;;;;;3.00;0.80;;;;;;;21.31;73.82;100035.65;105686;1263;98406;-84
2023/08/04 06:56:12;;;;;;;2.40;0.60;;;;;;;21.47;72.50;100038.62;105832;1262;101445;-85
2023/08/04 06:58:59;;;;;;;1.30;0.70;;;;;;;21.60;72.36;100042.33;105993;1267;99199;-83
2023/08/04 07:01:44;;;;;;;1.50;0.60;;;;;;;21.71;72.21;100042.88;105821;1259;99104;-85
2023/08/04 07:04:30;;;;;;;2.70;0.50;;;;;;;21.78;71.02;100039.22;105841;1263;97873;-84
2023/08/04 07:07:16;;;;;;;2.10;0.50;;;;;;;21.84;70.29;100043.66;105635;1260;97920;-84
2023/08/04 07:10:01;;;;;;;0.90;0.60;;;;;;;21.89;69.71;100042.47;105790;1267;101421;-85
2023/08/04 07:12:46;;;;;;;3.10;1.00;;;;;;;21.97;70.09;100041.37;106169;1260;99179;-83
2023/08/04 07:15:31;;;;;;;1.70;0.70;;;;;;;22.08;70.25;100042.05;105924;1267;97903;-86
2023/08/04 07:18:17;;;;;;;1.90;0.70;;;;;;;22.23;70.06;100058.02;105774;1260;98025;-84
2023/08/04 07:21:05;;;;;;;1.50;0.70;;;;;;;22.40;69.77;100066.38;105740;1267;98081;-83
2023/08/04 07:23:51;;;;;;;3.60;0.70;;;;;;;22.47;68.75;100070.73;105564;1267;101376;-85
2023/08/04 07:26:36;;;;;;;1.50;0.70;;;;;;;22.45;67.75;100082.30;105512;1259;99191;-83
2023/08/04 07:29:22;;;;;;;1.40;0.80;;;;;;;22.38;67.37;100080.47;105800;1259;97791;-84
2023/08/04 07:32:07;;;;;;;3.40;0.70;;;;;;;22.28;66.75;100081.09;105629;1262;97977;-83
2023/08/04 07:34:52;;;;;;;3.30;0.90;;;;;;;22.19;67.21;100080.23;105670;1260;98380;-84
2023/08/04 07:37:38;;;;;;;1.50;0.50;;;;;;;22.16;67.68;100079.91;105765;1264;102649;-84
2023/08/04 07:40:23;;;;;;;4.00;0.70;;;;;;;22.25;68.46;100077.05;105731;1259;100823;-84
2023/08/04 07:43:11;;;;;;;1.40;0.60;;;;;;;22.37;68.90;100079.05;105840;1259;97984;-83
2023/08/04 07:45:57;;;;;;;2.10;0.80;;;;;;;22.43;68.57;100083.40;106263;1259;97977;-83
2023/08/04 07:48:43;;;;;;;3.30;0.80;;;;;;;22.43;68.23;100080.63;106174;1267;98402;-83
2023/08/04 07:51:28;;;;;;;4.00;0.80;;;;;;;22.43;68.26;100091.65;106504;1259;101674;-84
2023/08/04 07:54:14;;;;;;;2.70;0.90;;;;;;;22.39;67.89;100099.02;106455;1259;100700;-84
2023/08/04 07:57:02;;;;;;;1.90;1.20;;;;;;;22.33;67.83;100105.31;106186;1259;97975;-84
2023/08/04 07:59:50;;;;;;;4.40;0.90;;;;;;;22.29;67.98;100102.48;106095;1267;97988;-82
2023/08/04 08:02:35;;;;;;;3.00;0.80;;;;;;;22.37;68.34;100100.34;106182;1259;97984;-84
2023/08/04 08:05:21;;;;;;;2.80;0.70;;;;;;;22.54;68.51;100109.00;105683;1262;102538;-84
2023/08/04 08:08:07;;;;;;;1.40;1.00;;;;;;;22.66;68.05;100110.02;105791;1265;99815;-83
2023/08/04 08:10:54;;;;;;;1.10;0.60;;;;;;;22.68;67.13;100111.65;105708;1259;97981;-83
2023/08/04 08:13:40;;;;;;;1.30;0.70;;;;;;;22.67;66.67;100117.00;105613;1262;97999;-82
2023/08/04 08:16:25;;;;;;;2.10;0.70;;;;;;;22.67;66.32;100117.98;105487;1262;98470;-82
2023/08/04 08:19:10;;;;;;;5.10;1.10;;;;;;;22.63;66.18;100120.41;105689;1264;102618;-84
2023/08/04 08:21:56;;;;;;;3.50;0.60;;;;;;;22.58;66.00;100121.60;105741;1264;100384;-84
2023/08/04 08:24:42;;;;;;;3.80;0.90;;;;;;;22.56;66.18;100122.84;105636;1265;100161;-83
2023/08/04 08:27:28;;;;;;;1.80;0.70;;;;;;;22.56;66.46;100128.79;105620;1263;97951;-85
2023/08/04 08:30:13;;;;;;;1.60;0.60;;;;;;;22.60;66.91;100133.89;105686;1267;99579;-85
2023/08/04 08:32:59;;;;;;;1.40;0.50;;;;;;;22.65;67.09;100132.91;105718;1260;102699;-83
2023/08/04 08:35:45;;;;;;;1.10;0.60;;;;;;;22.69;67.04;100135.61;105704;1259;99259;-84
2023/08/04 08:38:31;;;;;;;1.30;0.50;;;;;;;22.74;67.18;100134.41;105712;1261;99054;-83
2023/08/04 08:41:16;;;;;;;1.90;0.60;;;;;;;22.80;66.97;100130.94;105589;1262;99330;-83
2023/08/04 08:44:02;;;;;;;1.60;0.70;;;;;;;22.89;66.99;100131.08;105839;1263;97882;-83
2023/08/04 08:46:47;;;;;;;0.70;0.60;;;;;;;22.96;66.74;100135.37;105848;1265;101423;-83
2023/08/04 08:49:46;;;;;;;2.20;0.70;;;;;;;23.03;66.74;100140.05;105793;1260;100572;-84
2023/08/04 08:52:35;;;;;;;2.10;0.60;;;;;;;23.14;66.41;100143.72;105596;1262;98044;-83
2023/08/04 08:55:21;;;;;;;3.10;0.80;;;;;;;23.23;65.96;100141.59;105416;1261;97988;-85
2023/08/04 08:58:07;;;;;;;1.60;0.80;;;;;;;23.31;65.98;100144.52;105530;1265;98450;-85
2023/08/04 09:00:52;;;;;;;1.60;0.60;;;;;;;23.40;65.75;100155.91;105603;1261;101485;-83
2023/08/04 09:03:38;;;;;;;2.50;0.70;;;;;;;23.47;65.26;100161.61;105611;1260;99172;-83
2023/08/04 09:06:23;;;;;;;1.70;0.50;;;;;;;23.55;64.53;100162.66;105616;1261;99036;-84
2023/08/04 09:09:09;;;;;;;2.70;0.50;;;;;;;23.62;63.83;100165.36;105468;1267;97997;-85
2023/08/04 09:11:59;;;;;;;0.80;0.50;;;;;;;23.71;64.33;100166.23;105692;1259;98401;-83
2023/08/04 09:14:48;;;;;;;2.60;0.60;;;;;;;23.84;64.56;100162.70;105602;1262;103094;-84
2023/08/04 09:17:39;;;;;;;1.60;0.80;;;;;;;23.94;63.95;100158.52;105579;1262;100132;-83
2023/08/04 09:20:29;;;;;;;1.70;0.40;;;;;;;23.98;63.87;100164.94;105613;1263;98589;-83
2023/08/04 09:23:14;;;;;;;3.40;0.60;;;;;;;24.10;63.47;100173.26;105746;1266;98046;-85
2023/08/04 09:26:00;;;;;;;1.80;0.70;;;;;;;24.12;62.07;100173.58;105705;1262;100092;-83
2023/08/04 09:29:01;;;;;;;1.60;0.40;;;;;;;24.06;62.03;100175.77;105720;1259;101407;-84
2023/08/04 09:31:48;;;;;;;;;;;;;;;24.01;62.20;100174.23;105639;1259;100531;-84
2023/08/04 09:34:33;;;;;;;2.20;0.40;;;;;;;24.02;61.77;100177.52;105625;1265;98666;-83
2023/08/04 09:37:19;;;;;;;0.90;0.60;;;;;;;24.16;62.06;100170.31;105592;1267;98384;-85
2023/08/04 09:40:14;;;;;;;2.00;0.70;;;;;;;24.30;61.58;100164.84;105652;1261;98531;-86
2023/08/04 09:43:00;;;;;;;2.30;0.70;;;;;;;24.45;61.33;100169.02;105647;1260;101352;-86
2023/08/04 09:45:46;;;;;;;2.50;0.70;;;;;;;24.50;60.88;100169.64;105684;1259;99197;-84
2023/08/04 09:48:32;;;;;;;5.10;0.80;;;;;;;24.46;59.91;100173.45;105631;1259;98743;-83
2023/08/04 09:51:21;;;;;;;3.20;0.60;;;;;;;24.45;59.80;100175.20;105768;1267;97982;-84
2023/08/04 09:54:06;;;;;;;1.20;0.80;;;;;;;24.45;59.67;100172.96;105758;1259;98383;-84
2023/08/04 09:56:52;;;;;;;3.80;0.80;;;;;;;24.54;59.76;100174.52;105788;1261;101455;-84
2023/08/04 09:59:38;;;;;;;0.70;0.50;;;;;;;24.67;60.10;100175.44;105803;1264;108663;-83
2023/08/04 10:02:24;;;;;;;1.90;0.60;;;;;;;24.69;59.20;100173.00;105889;1259;97920;-86
2023/08/04 10:05:12;;;;;;;0.60;0.30;;;;;;;24.69;58.97;100168.45;105739;1265;97913;-84
2023/08/04 10:07:59;;;;;;;1.20;0.70;;;;;;;24.73;58.96;100167.98;105637;1268;98590;-85
2023/08/04 10:10:44;;;;;;;3.80;0.60;;;;;;;24.84;58.87;100169.08;105986;1259;101955;-86
2023/08/04 10:13:33;;;;;;;2.20;0.80;;;;;;;24.91;58.60;100173.06;105635;1270;99281;-84
2023/08/04 10:16:24;;;;;;;3.10;0.70;;;;;;;24.99;58.16;100172.98;105783;1267;98640;-85
2023/08/04 10:19:11;;;;;;;4.60;0.50;;;;;;;25.16;58.57;100173.25;105430;1259;98049;-86
2023/08/04 10:22:04;;;;;;;2.20;0.70;;;;;;;25.25;57.73;100174.91;105642;1265;97969;-86
2023/08/04 10:24:49;;;;;;;2.00;0.50;;;;;;;25.32;57.38;100175.42;105663;1260;102731;-84
2023/08/04 10:27:46;;;;;;;0.80;0.60;;;;;;;25.43;57.93;100175.80;105673;1260;100396;-83
2023/08/04 10:30:32;;;;;;;4.80;0.80;;;;;;;25.51;56.95;100171.25;105575;1261;98023;-85
2023/08/04 10:33:21;;;;;;;1.60;0.70;;;;;;;25.54;56.89;100164.41;105672;1269;98421;-84
2023/08/04 10:36:09;;;;;;;3.70;0.60;;;;;;;25.46;55.71;100163.59;105599;1260;98005;-85
2023/08/04 10:38:55;;;;;;;3.30;0.60;;;;;;;25.35;55.81;100163.96;105745;1265;101448;-84
2023/08/04 10:41:40;;;;;;;3.20;0.90;;;;;;;25.30;56.02;100168.31;105731;1265;100738;-84
2023/08/04 10:44:30;;;;;;;3.30;0.60;;;;;;;25.33;56.43;100177.98;105615;1265;98819;-84
2023/08/04 10:47:29;;;;;;;1.20;0.50;;;;;;;25.43;56.60;100175.08;105822;1263;97969;-84
2023/08/04 10:50:15;;;;;;;1.50;0.60;;;;;;;25.49;55.98;100176.42;105791;1261;97984;-85
2023/08/04 10:53:01;;;;;;;1.60;0.50;;;;;;;25.44;55.22;100179.34;105664;1267;101373;-85
2023/08/04 10:55:54;;;;;;;2.30;0.60;;;;;;;25.38;55.11;100178.30;105719;1263;99162;-85
2023/08/04 10:58:39;;;;;;;1.70;0.50;;;;;;;25.42;55.45;100180.40;105683;1262;98055;-84
2023/08/04 11:01:28;;;;;;;2.50;0.60;;;;;;;25.54;55.04;100179.77;105777;1265;98064;-86
2023/08/04 11:04:18;;;;;;;1.60;0.60;;;;;;;25.59;54.07;100179.20;105815;1259;98491;-85
2023/08/04 11:07:04;;;;;;;1.40;0.70;;;;;;;25.61;53.76;100180.48;105667;1264;101438;-84
2023/08/04 11:09:53;;;;;;;1.50;0.50;;;;;;;25.58;53.22;100190.23;105755;1266;100802;-85
2023/08/04 11:12:39;;;;;;;0.70;0.40;;;;;;;25.54;53.45;100189.31;105766;1260;98458;-86
2023/08/04 11:15:24;;;;;;;2.10;0.50;;;;;;;25.64;53.85;100188.67;105924;1264;97960;-83
2023/08/04 11:18:12;;;;;;;3.10;0.50;;;;;;;25.79;53.99;100194.11;105732;1259;98060;-83
2023/08/04 11:21:01;;;;;;;1.20;0.60;;;;;;;25.84;53.06;100193.15;105520;1268;101747;-83
2023/08/04 11:23:47;;;;;;;1.30;0.50;;;;;;;25.83;53.00;100193.23;105880;1265;99769;-83
2023/08/04 11:26:32;;;;;;;2.90;0.80;;;;;;;25.83;53.06;100191.96;105802;1263;99074;-85
2023/08/04 11:29:19;;;;;;;1.90;0.80;;;;;;;25.77;52.11;100190.41;105638;1261;97973;-84
2023/08/04 11:32:15;;;;;;;1.20;0.50;;;;;;;25.78;52.80;100188.42;105814;1266;97914;-82
2023/08/04 11:35:01;;;;;;;2.40;0.40;;;;;;;25.87;53.17;100182.68;105924;1265;101363;-84
2023/08/04 11:37:46;;;;;;;1.60;0.70;;;;;;;25.99;52.98;100188.05;105749;1262;99927;-84
2023/08/04 11:40:34;;;;;;;1.50;0.60;;;;;;;26.02;52.35;100188.71;105798;1260;99475;-84
2023/08/04 11:43:19;;;;;;;1.30;0.50;;;;;;;26.06;52.32;100190.31;105737;1267;98588;-84
2023/08/04 11:46:08;;;;;;;2.20;0.60;;;;;;;26.15;52.58;100184.58;105796;1267;100824;-84
2023/08/04 11:48:54;;;;;;;1.10;0.70;;;;;;;26.27;52.29;100186.58;105684;1265;102091;-84
2023/08/04 11:51:44;;;;;;;1.50;0.60;;;;;;;26.39;51.95;100186.94;105507;1265;99323;-83
2023/08/04 11:54:29;;;;;;;1.90;0.60;;;;;;;26.50;52.06;100184.77;105760;1261;97932;-85
2023/08/04 11:57:17;;;;;;;0.90;0.60;;;;;;;26.60;51.99;100185.51;105571;1261;97988;-83
2023/08/04 12:00:03;;;;;;;1.60;0.50;;;;;;;26.71;51.91;100187.79;105720;1265;98039;-85
2023/08/04 12:03:00;;;;;;;0.70;0.40;;;;;;;26.77;51.32;100190.17;105754;1260;102557;-84
2023/08/04 12:05:46;;;;;;;1.50;0.50;;;;;;;26.78;50.97;100194.71;105797;1261;99093;-83
2023/08/04 12:08:32;;;;;;;4.00;0.50;;;;;;;26.74;50.62;100194.41;105773;1261;98996;-83
2023/08/04 12:11:19;;;;;;;2.20;0.70;;;;;;;26.75;50.87;100193.45;105880;1267;98055;-84
2023/08/04 12:14:07;;;;;;;2.90;0.60;;;;;;;26.80;51.36;100192.54;105958;1263;97874;-85
2023/08/04 12:17:01;;;;;;;1.30;0.50;;;;;;;26.79;51.01;100191.17;105809;1275;102190;-83
2023/08/04 12:19:47;;;;;;;3.10;0.70;;;;;;;26.72;50.59;100191.39;105749;1265;100153;-84
2023/08/04 12:22:37;;;;;;;3.30;1.10;;;;;;;26.67;50.71;100190.10;106235;1263;99084;-84
2023/08/04 12:25:22;;;;;;;1.30;0.80;;;;;;;26.71;50.90;100194.27;105786;1261;99814;-83
2023/08/04 12:28:10;;;;;;;1.80;0.70;;;;;;;26.79;50.80;100198.11;105570;1266;98011;-85
2023/08/04 12:30:56;;;;;;;1.10;0.50;;;;;;;26.86;50.28;100201.61;105871;1265;101404;-85
2023/08/04 12:33:41;;;;;;;1.00;0.70;;;;;;;26.84;49.81;100201.80;106009;1260;99917;-83
2023/08/04 12:36:27;;;;;;;0.90;0.60;;;;;;;26.78;49.81;100201.54;105834;1261;99494;-83
2023/08/04 12:39:13;;;;;;;25.50;19.20;;;;;;;26.74;49.71;100198.24;105655;1265;98336;-85
2023/08/04 12:41:59;;;;;;;10.90;9.50;;;;;;;26.72;49.89;100196.95;105839;1264;97853;-84
2023/08/04 12:44:45;;;;;;;6.70;4.00;;;;;;;26.79;50.08;100199.98;105722;1265;103473;-84
2023/08/04 12:47:31;;;;;;;4.80;1.50;;;;;;;26.88;50.56;100202.02;105736;1261;100428;-84